sensor_id;sensor_type;location;lat;lon;timestamp;P1;durP1;ratioP1;P2;durP2;ratioP2
32038;SDS011;18549;42.286;22.688;2022-11-24T00:02:01;41.33;;;23.63;;
32038;SDS011;18549;42.286;22.688;2022-11-24T00:04:27;44.73;;;25.77;;
32038;SDS011;18549;42.286;22.688;2022-11-24T00:06:54;43.27;;;24.00;;
32038;SDS011;18549;42.286;22.688;2022-11-24T00:09:21;41.27;;;22.07;;
32038;SDS011;18549;42.286;22.688;2022-11-24T00:11:47;42.37;;;24.50;;
32038;SDS011;18549;42.286;22.688;2022-11-24T00:14:14;63.87;;;29.23;;
32038;SDS011;18549;42.286;22.688;2022-11-24T00:16:43;65.57;;;34.17;;
32038;SDS011;18549;42.286;22.688;2022-11-24T00:19:11;78.30;;;37.33;;
32038;SDS011;18549;42.286;22.688;2022-11-24T00:21:38;55.80;;;30.00;;
32038;SDS011;18549;42.286;22.688;2022-11-24T00:24:04;67.17;;;35.03;;
32038;SDS011;18549;42.286;22.688;2022-11-24T00:26:32;60.37;;;31.87;;
32038;SDS011;18549;42.286;22.688;2022-11-24T00:29:02;67.60;;;35.77;;
32038;SDS011;18549;42.286;22.688;2022-11-24T00:31:31;61.40;;;31.20;;
32038;SDS011;18549;42.286;22.688;2022-11-24T00:34:01;50.30;;;28.63;;
32038;SDS011;18549;42.286;22.688;2022-11-24T00:36:29;88.53;;;42.77;;
32038;SDS011;18549;42.286;22.688;2022-11-24T00:38:58;44.17;;;24.90;;
32038;SDS011;18549;42.286;22.688;2022-11-24T00:41:26;34.57;;;19.07;;
32038;SDS011;18549;42.286;22.688;2022-11-24T00:43:54;41.93;;;22.80;;
32038;SDS011;18549;42.286;22.688;2022-11-24T00:46:21;30.43;;;16.73;;
32038;SDS011;18549;42.286;22.688;2022-11-24T00:48:48;34.53;;;20.63;;
32038;SDS011;18549;42.286;22.688;2022-11-24T00:51:17;40.70;;;22.47;;
32038;SDS011;18549;42.286;22.688;2022-11-24T00:53:44;65.43;;;35.10;;
32038;SDS011;18549;42.286;22.688;2022-11-24T00:56:11;66.27;;;31.97;;
32038;SDS011;18549;42.286;22.688;2022-11-24T00:58:38;36.93;;;21.20;;
32038;SDS011;18549;42.286;22.688;2022-11-24T01:01:06;48.73;;;23.83;;
32038;SDS011;18549;42.286;22.688;2022-11-24T01:03:35;46.50;;;22.80;;
32038;SDS011;18549;42.286;22.688;2022-11-24T01:06:02;28.40;;;16.67;;
32038;SDS011;18549;42.286;22.688;2022-11-24T01:08:31;30.20;;;14.33;;
32038;SDS011;18549;42.286;22.688;2022-11-24T01:11:08;28.90;;;15.07;;
32038;SDS011;18549;42.286;22.688;2022-11-24T01:13:36;27.13;;;16.50;;
32038;SDS011;18549;42.286;22.688;2022-11-24T01:16:03;32.13;;;17.43;;
32038;SDS011;18549;42.286;22.688;2022-11-24T01:18:31;34.43;;;17.80;;
32038;SDS011;18549;42.286;22.688;2022-11-24T01:20:58;30.73;;;18.83;;
32038;SDS011;18549;42.286;22.688;2022-11-24T01:23:28;33.97;;;21.80;;
32038;SDS011;18549;42.286;22.688;2022-11-24T01:25:56;31.93;;;19.30;;
32038;SDS011;18549;42.286;22.688;2022-11-24T01:28:23;32.17;;;20.13;;
32038;SDS011;18549;42.286;22.688;2022-11-24T01:30:55;34.07;;;18.97;;
32038;SDS011;18549;42.286;22.688;2022-11-24T01:33:23;31.30;;;18.93;;
32038;SDS011;18549;42.286;22.688;2022-11-24T01:35:49;31.67;;;18.67;;
32038;SDS011;18549;42.286;22.688;2022-11-24T01:38:16;41.03;;;21.70;;
32038;SDS011;18549;42.286;22.688;2022-11-24T01:40:44;47.57;;;26.20;;
32038;SDS011;18549;42.286;22.688;2022-11-24T01:43:16;57.43;;;32.27;;
32038;SDS011;18549;42.286;22.688;2022-11-24T01:45:44;46.10;;;25.10;;
32038;SDS011;18549;42.286;22.688;2022-11-24T01:48:13;43.53;;;24.77;;
32038;SDS011;18549;42.286;22.688;2022-11-24T01:50:44;47.37;;;28.07;;
32038;SDS011;18549;42.286;22.688;2022-11-24T01:53:13;44.70;;;26.43;;
32038;SDS011;18549;42.286;22.688;2022-11-24T01:55:40;41.53;;;26.00;;
32038;SDS011;18549;42.286;22.688;2022-11-24T01:58:08;53.67;;;26.97;;
32038;SDS011;18549;42.286;22.688;2022-11-24T02:00:41;42.23;;;24.77;;
32038;SDS011;18549;42.286;22.688;2022-11-24T02:03:10;45.50;;;25.33;;
32038;SDS011;18549;42.286;22.688;2022-11-24T02:05:42;42.73;;;24.30;;
32038;SDS011;18549;42.286;22.688;2022-11-24T02:08:17;39.10;;;22.70;;
32038;SDS011;18549;42.286;22.688;2022-11-24T02:10:48;23.80;;;14.47;;
32038;SDS011;18549;42.286;22.688;2022-11-24T02:13:14;35.57;;;15.57;;
32038;SDS011;18549;42.286;22.688;2022-11-24T02:15:43;33.57;;;18.67;;
32038;SDS011;18549;42.286;22.688;2022-11-24T02:18:10;21.40;;;13.73;;
32038;SDS011;18549;42.286;22.688;2022-11-24T02:20:36;11.47;;;8.77;;
32038;SDS011;18549;42.286;22.688;2022-11-24T02:23:04;18.23;;;10.53;;
32038;SDS011;18549;42.286;22.688;2022-11-24T02:25:42;17.10;;;9.23;;
32038;SDS011;18549;42.286;22.688;2022-11-24T02:28:19;21.37;;;11.00;;
32038;SDS011;18549;42.286;22.688;2022-11-24T02:30:48;15.10;;;10.27;;
32038;SDS011;18549;42.286;22.688;2022-11-24T02:33:15;17.43;;;10.17;;
32038;SDS011;18549;42.286;22.688;2022-11-24T02:35:43;17.37;;;10.70;;
32038;SDS011;18549;42.286;22.688;2022-11-24T02:38:10;21.90;;;12.30;;
32038;SDS011;18549;42.286;22.688;2022-11-24T02:40:37;21.33;;;11.17;;
32038;SDS011;18549;42.286;22.688;2022-11-24T02:43:08;20.63;;;11.60;;
32038;SDS011;18549;42.286;22.688;2022-11-24T02:45:40;20.63;;;12.20;;
32038;SDS011;18549;42.286;22.688;2022-11-24T02:48:09;13.40;;;8.97;;
32038;SDS011;18549;42.286;22.688;2022-11-24T02:50:36;18.27;;;10.73;;
32038;SDS011;18549;42.286;22.688;2022-11-24T02:53:03;16.70;;;10.17;;
32038;SDS011;18549;42.286;22.688;2022-11-24T02:55:29;23.53;;;11.60;;
32038;SDS011;18549;42.286;22.688;2022-11-24T02:57:57;23.33;;;13.80;;
32038;SDS011;18549;42.286;22.688;2022-11-24T03:00:23;22.50;;;14.97;;
32038;SDS011;18549;42.286;22.688;2022-11-24T03:02:52;29.37;;;16.73;;
32038;SDS011;18549;42.286;22.688;2022-11-24T03:05:19;37.20;;;20.77;;
32038;SDS011;18549;42.286;22.688;2022-11-24T03:07:46;36.70;;;23.23;;
32038;SDS011;18549;42.286;22.688;2022-11-24T03:10:12;43.27;;;24.93;;
32038;SDS011;18549;42.286;22.688;2022-11-24T03:12:40;38.23;;;20.03;;
32038;SDS011;18549;42.286;22.688;2022-11-24T03:15:07;34.73;;;20.40;;
32038;SDS011;18549;42.286;22.688;2022-11-24T03:17:34;34.50;;;20.37;;
32038;SDS011;18549;42.286;22.688;2022-11-24T03:20:03;34.50;;;20.63;;
32038;SDS011;18549;42.286;22.688;2022-11-24T03:22:30;35.60;;;21.77;;
32038;SDS011;18549;42.286;22.688;2022-11-24T03:24:57;38.20;;;22.80;;
32038;SDS011;18549;42.286;22.688;2022-11-24T03:27:24;37.40;;;21.03;;
32038;SDS011;18549;42.286;22.688;2022-11-24T03:29:51;40.17;;;20.23;;
32038;SDS011;18549;42.286;22.688;2022-11-24T03:32:18;39.60;;;22.33;;
32038;SDS011;18549;42.286;22.688;2022-11-24T03:34:44;39.13;;;22.37;;
32038;SDS011;18549;42.286;22.688;2022-11-24T03:37:12;45.03;;;23.60;;
32038;SDS011;18549;42.286;22.688;2022-11-24T03:39:39;44.53;;;26.57;;
32038;SDS011;18549;42.286;22.688;2022-11-24T03:42:06;42.80;;;24.83;;
32038;SDS011;18549;42.286;22.688;2022-11-24T03:44:33;40.70;;;24.33;;
32038;SDS011;18549;42.286;22.688;2022-11-24T03:46:59;42.17;;;25.73;;
32038;SDS011;18549;42.286;22.688;2022-11-24T03:49:26;36.13;;;22.33;;
32038;SDS011;18549;42.286;22.688;2022-11-24T03:51:53;40.00;;;20.47;;
32038;SDS011;18549;42.286;22.688;2022-11-24T03:54:21;37.33;;;21.70;;
32038;SDS011;18549;42.286;22.688;2022-11-24T03:56:48;33.97;;;19.60;;
32038;SDS011;18549;42.286;22.688;2022-11-24T03:59:15;37.30;;;19.90;;
32038;SDS011;18549;42.286;22.688;2022-11-24T04:01:43;33.63;;;21.47;;
32038;SDS011;18549;42.286;22.688;2022-11-24T04:04:10;48.90;;;25.17;;
32038;SDS011;18549;42.286;22.688;2022-11-24T04:06:37;42.40;;;25.63;;
32038;SDS011;18549;42.286;22.688;2022-11-24T04:09:04;44.10;;;23.87;;
32038;SDS011;18549;42.286;22.688;2022-11-24T04:11:32;44.30;;;22.00;;
32038;SDS011;18549;42.286;22.688;2022-11-24T04:14:16;42.67;;;21.17;;
32038;SDS011;18549;42.286;22.688;2022-11-24T04:16:43;33.60;;;19.90;;
32038;SDS011;18549;42.286;22.688;2022-11-24T04:19:10;29.93;;;17.20;;
32038;SDS011;18549;42.286;22.688;2022-11-24T04:21:37;31.13;;;15.53;;
32038;SDS011;18549;42.286;22.688;2022-11-24T04:24:04;26.27;;;14.00;;
32038;SDS011;18549;42.286;22.688;2022-11-24T04:26:32;27.80;;;14.70;;
32038;SDS011;18549;42.286;22.688;2022-11-24T04:28:59;28.77;;;15.93;;
32038;SDS011;18549;42.286;22.688;2022-11-24T04:31:26;25.30;;;16.33;;
32038;SDS011;18549;42.286;22.688;2022-11-24T04:33:52;28.93;;;17.90;;
32038;SDS011;18549;42.286;22.688;2022-11-24T04:36:22;26.53;;;17.30;;
32038;SDS011;18549;42.286;22.688;2022-11-24T04:38:50;29.40;;;19.47;;
32038;SDS011;18549;42.286;22.688;2022-11-24T04:41:18;33.90;;;22.83;;
32038;SDS011;18549;42.286;22.688;2022-11-24T04:43:48;24.90;;;16.07;;
32038;SDS011;18549;42.286;22.688;2022-11-24T04:46:15;28.67;;;15.53;;
32038;SDS011;18549;42.286;22.688;2022-11-24T04:48:43;28.47;;;15.87;;
32038;SDS011;18549;42.286;22.688;2022-11-24T04:51:12;31.57;;;17.03;;
32038;SDS011;18549;42.286;22.688;2022-11-24T04:53:41;28.37;;;15.13;;
32038;SDS011;18549;42.286;22.688;2022-11-24T04:56:08;21.90;;;15.33;;
32038;SDS011;18549;42.286;22.688;2022-11-24T04:58:35;24.57;;;16.50;;
32038;SDS011;18549;42.286;22.688;2022-11-24T05:01:06;31.43;;;18.00;;
32038;SDS011;18549;42.286;22.688;2022-11-24T05:03:34;33.37;;;17.60;;
32038;SDS011;18549;42.286;22.688;2022-11-24T05:06:10;24.63;;;17.33;;
32038;SDS011;18549;42.286;22.688;2022-11-24T05:08:37;35.33;;;18.73;;
32038;SDS011;18549;42.286;22.688;2022-11-24T05:11:05;26.27;;;18.27;;
32038;SDS011;18549;42.286;22.688;2022-11-24T05:13:32;45.37;;;20.93;;
32038;SDS011;18549;42.286;22.688;2022-11-24T05:15:59;39.53;;;20.37;;
32038;SDS011;18549;42.286;22.688;2022-11-24T05:18:27;41.63;;;22.20;;
32038;SDS011;18549;42.286;22.688;2022-11-24T05:20:54;46.70;;;27.37;;
32038;SDS011;18549;42.286;22.688;2022-11-24T05:23:22;34.03;;;20.37;;
32038;SDS011;18549;42.286;22.688;2022-11-24T05:25:49;31.17;;;18.30;;
32038;SDS011;18549;42.286;22.688;2022-11-24T05:28:17;30.40;;;18.27;;
32038;SDS011;18549;42.286;22.688;2022-11-24T05:30:44;25.70;;;16.30;;
32038;SDS011;18549;42.286;22.688;2022-11-24T05:33:12;26.23;;;14.83;;
32038;SDS011;18549;42.286;22.688;2022-11-24T05:35:44;42.73;;;20.03;;
32038;SDS011;18549;42.286;22.688;2022-11-24T05:38:11;45.13;;;24.23;;
32038;SDS011;18549;42.286;22.688;2022-11-24T05:40:38;32.13;;;21.60;;
32038;SDS011;18549;42.286;22.688;2022-11-24T05:43:06;28.83;;;20.03;;
32038;SDS011;18549;42.286;22.688;2022-11-24T05:45:36;59.07;;;25.30;;
32038;SDS011;18549;42.286;22.688;2022-11-24T05:48:04;34.53;;;20.70;;
32038;SDS011;18549;42.286;22.688;2022-11-24T05:50:32;38.87;;;22.10;;
32038;SDS011;18549;42.286;22.688;2022-11-24T05:53:02;42.90;;;22.17;;
32038;SDS011;18549;42.286;22.688;2022-11-24T05:55:29;36.43;;;19.97;;
32038;SDS011;18549;42.286;22.688;2022-11-24T05:57:57;39.30;;;20.40;;
32038;SDS011;18549;42.286;22.688;2022-11-24T06:00:25;51.27;;;27.70;;
32038;SDS011;18549;42.286;22.688;2022-11-24T06:02:53;53.73;;;29.93;;
32038;SDS011;18549;42.286;22.688;2022-11-24T06:05:19;55.87;;;28.70;;
32038;SDS011;18549;42.286;22.688;2022-11-24T06:07:47;52.83;;;29.50;;
32038;SDS011;18549;42.286;22.688;2022-11-24T06:10:16;77.00;;;32.80;;
32038;SDS011;18549;42.286;22.688;2022-11-24T06:12:43;53.53;;;32.67;;
32038;SDS011;18549;42.286;22.688;2022-11-24T06:15:11;65.53;;;35.30;;
32038;SDS011;18549;42.286;22.688;2022-11-24T06:17:38;65.27;;;34.07;;
32038;SDS011;18549;42.286;22.688;2022-11-24T06:20:05;82.00;;;51.37;;
32038;SDS011;18549;42.286;22.688;2022-11-24T06:22:33;85.60;;;46.43;;
32038;SDS011;18549;42.286;22.688;2022-11-24T06:25:00;77.63;;;45.40;;
32038;SDS011;18549;42.286;22.688;2022-11-24T06:27:30;76.20;;;42.33;;
32038;SDS011;18549;42.286;22.688;2022-11-24T06:29:57;72.33;;;44.63;;
32038;SDS011;18549;42.286;22.688;2022-11-24T06:32:24;78.87;;;48.17;;
32038;SDS011;18549;42.286;22.688;2022-11-24T06:34:52;90.80;;;53.27;;
32038;SDS011;18549;42.286;22.688;2022-11-24T06:37:20;82.60;;;48.07;;
32038;SDS011;18549;42.286;22.688;2022-11-24T06:39:47;74.03;;;42.50;;
32038;SDS011;18549;42.286;22.688;2022-11-24T06:42:14;69.53;;;38.50;;
32038;SDS011;18549;42.286;22.688;2022-11-24T06:44:44;60.53;;;37.47;;
32038;SDS011;18549;42.286;22.688;2022-11-24T06:47:13;58.60;;;36.10;;
32038;SDS011;18549;42.286;22.688;2022-11-24T06:49:40;59.97;;;35.67;;
32038;SDS011;18549;42.286;22.688;2022-11-24T06:52:07;66.00;;;40.27;;
32038;SDS011;18549;42.286;22.688;2022-11-24T06:54:34;62.80;;;38.60;;
32038;SDS011;18549;42.286;22.688;2022-11-24T06:57:02;65.87;;;36.53;;
32038;SDS011;18549;42.286;22.688;2022-11-24T06:59:28;72.70;;;36.17;;
32038;SDS011;18549;42.286;22.688;2022-11-24T07:01:57;60.13;;;33.63;;
32038;SDS011;18549;42.286;22.688;2022-11-24T07:04:23;51.30;;;32.77;;
32038;SDS011;18549;42.286;22.688;2022-11-24T07:06:50;61.50;;;34.33;;
32038;SDS011;18549;42.286;22.688;2022-11-24T07:09:18;70.30;;;41.97;;
32038;SDS011;18549;42.286;22.688;2022-11-24T07:11:45;76.13;;;52.43;;
32038;SDS011;18549;42.286;22.688;2022-11-24T07:14:11;95.27;;;59.93;;
32038;SDS011;18549;42.286;22.688;2022-11-24T07:16:38;89.80;;;58.57;;
32038;SDS011;18549;42.286;22.688;2022-11-24T07:19:07;101.17;;;61.37;;
32038;SDS011;18549;42.286;22.688;2022-11-24T07:21:35;97.50;;;60.23;;
32038;SDS011;18549;42.286;22.688;2022-11-24T07:24:01;92.80;;;59.20;;
32038;SDS011;18549;42.286;22.688;2022-11-24T07:26:33;91.80;;;54.17;;
32038;SDS011;18549;42.286;22.688;2022-11-24T07:29:01;89.87;;;57.40;;
32038;SDS011;18549;42.286;22.688;2022-11-24T07:31:29;92.77;;;62.53;;
32038;SDS011;18549;42.286;22.688;2022-11-24T07:33:56;104.70;;;64.20;;
32038;SDS011;18549;42.286;22.688;2022-11-24T07:36:24;93.90;;;63.43;;
32038;SDS011;18549;42.286;22.688;2022-11-24T07:38:51;106.63;;;62.40;;
32038;SDS011;18549;42.286;22.688;2022-11-24T07:41:18;87.23;;;60.53;;
32038;SDS011;18549;42.286;22.688;2022-11-24T07:43:47;82.90;;;50.30;;
32038;SDS011;18549;42.286;22.688;2022-11-24T07:46:15;82.77;;;55.17;;
32038;SDS011;18549;42.286;22.688;2022-11-24T07:48:44;74.50;;;45.00;;
32038;SDS011;18549;42.286;22.688;2022-11-24T07:51:10;73.37;;;45.13;;
32038;SDS011;18549;42.286;22.688;2022-11-24T07:53:39;70.93;;;46.90;;
32038;SDS011;18549;42.286;22.688;2022-11-24T07:56:06;71.30;;;46.10;;
32038;SDS011;18549;42.286;22.688;2022-11-24T07:58:34;76.33;;;48.00;;
32038;SDS011;18549;42.286;22.688;2022-11-24T08:01:09;113.47;;;64.23;;
32038;SDS011;18549;42.286;22.688;2022-11-24T08:03:37;127.53;;;75.93;;
32038;SDS011;18549;42.286;22.688;2022-11-24T08:06:04;114.37;;;71.77;;
32038;SDS011;18549;42.286;22.688;2022-11-24T08:08:32;104.70;;;64.53;;
32038;SDS011;18549;42.286;22.688;2022-11-24T08:11:04;89.00;;;53.23;;
32038;SDS011;18549;42.286;22.688;2022-11-24T08:13:34;78.80;;;51.47;;
32038;SDS011;18549;42.286;22.688;2022-11-24T08:16:05;77.00;;;50.47;;
32038;SDS011;18549;42.286;22.688;2022-11-24T08:18:34;70.47;;;47.10;;
32038;SDS011;18549;42.286;22.688;2022-11-24T08:21:02;73.93;;;49.77;;
32038;SDS011;18549;42.286;22.688;2022-11-24T08:23:29;61.50;;;44.40;;
32038;SDS011;18549;42.286;22.688;2022-11-24T08:25:57;67.67;;;42.90;;
32038;SDS011;18549;42.286;22.688;2022-11-24T08:28:30;59.53;;;38.33;;
32038;SDS011;18549;42.286;22.688;2022-11-24T08:31:02;50.23;;;29.87;;
32038;SDS011;18549;42.286;22.688;2022-11-24T08:33:30;36.13;;;22.60;;
32038;SDS011;18549;42.286;22.688;2022-11-24T08:36:01;34.53;;;22.30;;
32038;SDS011;18549;42.286;22.688;2022-11-24T08:38:29;39.10;;;23.87;;
32038;SDS011;18549;42.286;22.688;2022-11-24T08:40:58;38.30;;;23.93;;
32038;SDS011;18549;42.286;22.688;2022-11-24T08:43:25;55.40;;;24.90;;
32038;SDS011;18549;42.286;22.688;2022-11-24T08:45:53;35.33;;;20.43;;
32038;SDS011;18549;42.286;22.688;2022-11-24T08:48:23;30.87;;;19.83;;
32038;SDS011;18549;42.286;22.688;2022-11-24T08:50:50;26.63;;;20.13;;
32038;SDS011;18549;42.286;22.688;2022-11-24T08:53:17;30.97;;;20.40;;
32038;SDS011;18549;42.286;22.688;2022-11-24T08:55:44;31.20;;;21.00;;
32038;SDS011;18549;42.286;22.688;2022-11-24T08:58:16;28.97;;;20.77;;
32038;SDS011;18549;42.286;22.688;2022-11-24T09:00:43;43.47;;;20.43;;
32038;SDS011;18549;42.286;22.688;2022-11-24T09:03:14;40.77;;;18.90;;
32038;SDS011;18549;42.286;22.688;2022-11-24T09:05:41;27.97;;;15.80;;
32038;SDS011;18549;42.286;22.688;2022-11-24T09:08:08;40.80;;;18.23;;
32038;SDS011;18549;42.286;22.688;2022-11-24T09:10:35;23.47;;;17.03;;
32038;SDS011;18549;42.286;22.688;2022-11-24T09:13:02;34.17;;;19.30;;
32038;SDS011;18549;42.286;22.688;2022-11-24T09:15:29;42.30;;;19.63;;
32038;SDS011;18549;42.286;22.688;2022-11-24T09:17:56;27.17;;;18.43;;
32038;SDS011;18549;42.286;22.688;2022-11-24T09:20:24;35.97;;;17.57;;
32038;SDS011;18549;42.286;22.688;2022-11-24T09:22:51;34.73;;;17.27;;
32038;SDS011;18549;42.286;22.688;2022-11-24T09:25:17;24.93;;;16.47;;
32038;SDS011;18549;42.286;22.688;2022-11-24T09:27:44;22.50;;;13.47;;
32038;SDS011;18549;42.286;22.688;2022-11-24T09:30:11;34.57;;;16.20;;
32038;SDS011;18549;42.286;22.688;2022-11-24T09:32:38;26.83;;;16.03;;
32038;SDS011;18549;42.286;22.688;2022-11-24T09:35:05;29.23;;;14.57;;
32038;SDS011;18549;42.286;22.688;2022-11-24T09:37:34;26.93;;;18.17;;
32038;SDS011;18549;42.286;22.688;2022-11-24T09:40:00;35.87;;;17.53;;
32038;SDS011;18549;42.286;22.688;2022-11-24T09:42:29;35.83;;;18.53;;
32038;SDS011;18549;42.286;22.688;2022-11-24T09:45:10;41.43;;;20.43;;
32038;SDS011;18549;42.286;22.688;2022-11-24T09:47:53;36.27;;;21.83;;
32038;SDS011;18549;42.286;22.688;2022-11-24T09:50:24;36.90;;;21.07;;
32038;SDS011;18549;42.286;22.688;2022-11-24T09:52:56;40.53;;;21.17;;
32038;SDS011;18549;42.286;22.688;2022-11-24T09:55:32;47.40;;;22.00;;
32038;SDS011;18549;42.286;22.688;2022-11-24T09:58:08;38.30;;;22.70;;
32038;SDS011;18549;42.286;22.688;2022-11-24T10:00:54;45.50;;;24.40;;
32038;SDS011;18549;42.286;22.688;2022-11-24T10:03:23;48.47;;;22.00;;
32038;SDS011;18549;42.286;22.688;2022-11-24T10:05:56;49.27;;;27.93;;
32038;SDS011;18549;42.286;22.688;2022-11-24T10:08:30;55.47;;;33.83;;
32038;SDS011;18549;42.286;22.688;2022-11-24T10:11:10;53.40;;;30.47;;
32038;SDS011;18549;42.286;22.688;2022-11-24T10:13:56;69.70;;;34.20;;
32038;SDS011;18549;42.286;22.688;2022-11-24T10:16:41;65.47;;;40.47;;
32038;SDS011;18549;42.286;22.688;2022-11-24T10:19:18;54.83;;;34.33;;
32038;SDS011;18549;42.286;22.688;2022-11-24T10:21:58;39.23;;;25.87;;
32038;SDS011;18549;42.286;22.688;2022-11-24T10:27:40;46.80;;;23.70;;
32038;SDS011;18549;42.286;22.688;2022-11-24T10:30:13;38.13;;;23.57;;
32038;SDS011;18549;42.286;22.688;2022-11-24T10:32:43;39.67;;;24.03;;
32038;SDS011;18549;42.286;22.688;2022-11-24T10:35:13;41.10;;;25.43;;
32038;SDS011;18549;42.286;22.688;2022-11-24T10:37:42;42.93;;;25.60;;
32038;SDS011;18549;42.286;22.688;2022-11-24T10:40:21;40.53;;;25.70;;
32038;SDS011;18549;42.286;22.688;2022-11-24T10:42:52;47.73;;;31.43;;
32038;SDS011;18549;42.286;22.688;2022-11-24T10:45:20;52.33;;;30.00;;
32038;SDS011;18549;42.286;22.688;2022-11-24T10:47:47;68.50;;;30.70;;
32038;SDS011;18549;42.286;22.688;2022-11-24T10:50:18;54.50;;;29.73;;
32038;SDS011;18549;42.286;22.688;2022-11-24T10:52:48;56.73;;;30.23;;
32038;SDS011;18549;42.286;22.688;2022-11-24T10:55:23;59.63;;;33.43;;
32038;SDS011;18549;42.286;22.688;2022-11-24T10:57:50;64.03;;;37.30;;
32038;SDS011;18549;42.286;22.688;2022-11-24T11:03:15;51.07;;;32.00;;
32038;SDS011;18549;42.286;22.688;2022-11-24T11:05:43;53.77;;;32.60;;
32038;SDS011;18549;42.286;22.688;2022-11-24T11:08:17;56.90;;;32.20;;
32038;SDS011;18549;42.286;22.688;2022-11-24T11:10:48;71.03;;;39.40;;
32038;SDS011;18549;42.286;22.688;2022-11-24T11:13:19;65.07;;;38.07;;
32038;SDS011;18549;42.286;22.688;2022-11-24T11:18:17;51.33;;;31.47;;
32038;SDS011;18549;42.286;22.688;2022-11-24T11:20:48;57.63;;;31.17;;
32038;SDS011;18549;42.286;22.688;2022-11-24T11:23:21;51.93;;;29.87;;
32038;SDS011;18549;42.286;22.688;2022-11-24T11:25:56;53.40;;;29.30;;
32038;SDS011;18549;42.286;22.688;2022-11-24T11:28:51;41.27;;;26.17;;
32038;SDS011;18549;42.286;22.688;2022-11-24T11:31:22;34.77;;;19.67;;
32038;SDS011;18549;42.286;22.688;2022-11-24T11:33:56;30.37;;;17.90;;
32038;SDS011;18549;42.286;22.688;2022-11-24T11:36:25;28.70;;;15.90;;
32038;SDS011;18549;42.286;22.688;2022-11-24T11:38:53;45.90;;;28.77;;
32038;SDS011;18549;42.286;22.688;2022-11-24T11:41:23;63.87;;;35.00;;
32038;SDS011;18549;42.286;22.688;2022-11-24T11:43:56;59.60;;;33.10;;
32038;SDS011;18549;42.286;22.688;2022-11-24T11:46:30;40.93;;;24.80;;
32038;SDS011;18549;42.286;22.688;2022-11-24T11:48:58;53.70;;;33.10;;
32038;SDS011;18549;42.286;22.688;2022-11-24T11:51:37;57.73;;;33.33;;
32038;SDS011;18549;42.286;22.688;2022-11-24T11:54:15;63.70;;;36.30;;
32038;SDS011;18549;42.286;22.688;2022-11-24T11:56:56;71.97;;;39.67;;
32038;SDS011;18549;42.286;22.688;2022-11-24T11:59:41;55.20;;;33.20;;
32038;SDS011;18549;42.286;22.688;2022-11-24T12:02:36;26.10;;;15.57;;
32038;SDS011;18549;42.286;22.688;2022-11-24T12:05:16;29.53;;;14.03;;
32038;SDS011;18549;42.286;22.688;2022-11-24T12:07:50;21.50;;;12.97;;
32038;SDS011;18549;42.286;22.688;2022-11-24T12:10:27;31.57;;;20.23;;
32038;SDS011;18549;42.286;22.688;2022-11-24T12:16:36;29.00;;;16.07;;
32038;SDS011;18549;42.286;22.688;2022-11-24T12:19:16;25.07;;;14.50;;
32038;SDS011;18549;42.286;22.688;2022-11-24T12:21:53;29.80;;;16.57;;
32038;SDS011;18549;42.286;22.688;2022-11-24T12:24:29;27.87;;;16.47;;
32038;SDS011;18549;42.286;22.688;2022-11-24T12:27:07;37.47;;;24.87;;
32038;SDS011;18549;42.286;22.688;2022-11-24T12:32:53;48.20;;;30.20;;
32038;SDS011;18549;42.286;22.688;2022-11-24T12:35:38;56.63;;;29.10;;
32038;SDS011;18549;42.286;22.688;2022-11-24T12:38:20;36.93;;;21.50;;
32038;SDS011;18549;42.286;22.688;2022-11-24T12:41:02;33.47;;;20.23;;
32038;SDS011;18549;42.286;22.688;2022-11-24T12:43:38;30.10;;;19.97;;
32038;SDS011;18549;42.286;22.688;2022-11-24T12:46:12;30.97;;;17.77;;
32038;SDS011;18549;42.286;22.688;2022-11-24T12:48:46;26.33;;;15.57;;
32038;SDS011;18549;42.286;22.688;2022-11-24T12:51:18;27.67;;;18.40;;
32038;SDS011;18549;42.286;22.688;2022-11-24T12:53:49;26.67;;;17.63;;
32038;SDS011;18549;42.286;22.688;2022-11-24T12:56:19;38.13;;;17.83;;
32038;SDS011;18549;42.286;22.688;2022-11-24T12:58:54;17.83;;;12.57;;
32038;SDS011;18549;42.286;22.688;2022-11-24T13:01:30;12.73;;;9.10;;
32038;SDS011;18549;42.286;22.688;2022-11-24T13:04:03;13.60;;;8.33;;
32038;SDS011;18549;42.286;22.688;2022-11-24T13:06:38;12.80;;;6.77;;
32038;SDS011;18549;42.286;22.688;2022-11-24T13:09:13;12.63;;;6.37;;
32038;SDS011;18549;42.286;22.688;2022-11-24T13:11:41;15.10;;;6.90;;
32038;SDS011;18549;42.286;22.688;2022-11-24T13:14:17;14.03;;;7.73;;
32038;SDS011;18549;42.286;22.688;2022-11-24T13:16:57;15.00;;;8.23;;
32038;SDS011;18549;42.286;22.688;2022-11-24T13:19:25;25.40;;;9.73;;
32038;SDS011;18549;42.286;22.688;2022-11-24T13:21:59;17.73;;;6.93;;
32038;SDS011;18549;42.286;22.688;2022-11-24T13:24:39;15.30;;;7.87;;
32038;SDS011;18549;42.286;22.688;2022-11-24T13:27:24;19.77;;;8.40;;
32038;SDS011;18549;42.286;22.688;2022-11-24T13:29:53;21.17;;;9.80;;
32038;SDS011;18549;42.286;22.688;2022-11-24T13:38:54;28.57;;;13.73;;
32038;SDS011;18549;42.286;22.688;2022-11-24T13:44:46;13.37;;;8.20;;
32038;SDS011;18549;42.286;22.688;2022-11-24T13:50:11;22.90;;;12.00;;
32038;SDS011;18549;42.286;22.688;2022-11-24T13:52:50;23.73;;;16.37;;
32038;SDS011;18549;42.286;22.688;2022-11-24T13:55:26;40.10;;;19.63;;
32038;SDS011;18549;42.286;22.688;2022-11-24T13:57:57;29.60;;;16.00;;
32038;SDS011;18549;42.286;22.688;2022-11-24T14:00:28;26.33;;;16.03;;
32038;SDS011;18549;42.286;22.688;2022-11-24T14:02:56;28.50;;;17.27;;
32038;SDS011;18549;42.286;22.688;2022-11-24T14:05:31;29.37;;;16.90;;
32038;SDS011;18549;42.286;22.688;2022-11-24T14:08:02;26.10;;;15.93;;
32038;SDS011;18549;42.286;22.688;2022-11-24T14:10:31;25.37;;;19.53;;
32038;SDS011;18549;42.286;22.688;2022-11-24T14:13:16;18.73;;;13.20;;
32038;SDS011;18549;42.286;22.688;2022-11-24T14:15:59;16.80;;;11.60;;
32038;SDS011;18549;42.286;22.688;2022-11-24T14:18:28;17.40;;;7.33;;
32038;SDS011;18549;42.286;22.688;2022-11-24T14:20:57;14.57;;;9.47;;
32038;SDS011;18549;42.286;22.688;2022-11-24T14:23:25;10.80;;;6.43;;
32038;SDS011;18549;42.286;22.688;2022-11-24T14:25:52;12.70;;;8.20;;
32038;SDS011;18549;42.286;22.688;2022-11-24T14:28:20;8.53;;;5.70;;
32038;SDS011;18549;42.286;22.688;2022-11-24T14:30:50;25.40;;;14.10;;
32038;SDS011;18549;42.286;22.688;2022-11-24T14:33:30;31.03;;;13.43;;
32038;SDS011;18549;42.286;22.688;2022-11-24T14:35:59;18.87;;;7.60;;
32038;SDS011;18549;42.286;22.688;2022-11-24T14:38:25;22.17;;;11.63;;
32038;SDS011;18549;42.286;22.688;2022-11-24T14:40:53;33.47;;;13.07;;
32038;SDS011;18549;42.286;22.688;2022-11-24T14:43:21;17.87;;;7.60;;
32038;SDS011;18549;42.286;22.688;2022-11-24T14:45:53;11.33;;;7.93;;
32038;SDS011;18549;42.286;22.688;2022-11-24T14:48:23;10.17;;;7.47;;
32038;SDS011;18549;42.286;22.688;2022-11-24T14:50:52;8.43;;;5.90;;
32038;SDS011;18549;42.286;22.688;2022-11-24T14:53:31;9.30;;;6.30;;